Dallas, Texas
Traffic Map
Current Weather Conditions
Dallas, Texas
Few Clouds
Few Clouds
83°
Feels Like: 85°
Wind Chill: 83° Ceiling: Unl
Heat Index: 85° Visibility: 10mi
Dew Point: 67° Wind: 16mph
Humidity: 58% Direction: 140° (SE)
Pressure: 30.03in Gusts: 0mph
Raw Report DataKDAL 020353Z 14014KT 10SM FEW075 28/19 A3003 RMK AO2 SLP161 T02830194
Traffic Incident Summary
Active as of:
Severity:
Category:
InformationThere was an issue retrieving the traffic information for this location. Please try a different location or try again shortly.
Advertisements
Track Severe Weather on mobile